Latest Weather Observations for Roseworthy

IDS60801

Issued at 8:04 pm CDT Tuesday 31 March 2015 (issued every 30 minutes, with the page automatically refreshed every 10 minutes)

About weather observations | Map of weather stations | Latest weather observations for SA | Other Formats
Station Details ID: 023122 Name: ROSEWORTHY AWS Lat: -34.51 Lon: 138.68 Height: 65.0 m
Data from the previous 72 hours. | See also: Recent months at Roseworthy
Date/Time
CDT
Temp
°C
App
Temp
°C
Dew
Point
Rel
Hum
%
Delta-T
°C
Wind Press
QNH
hPa
Press
MSL
hPa
Rain
since 9 am
mm
Dir
 
Spd
km/h
Gust
km/h
Spd
kts
Gust
kts
31/08:00pm 21.6 20.7 5.9 36 7.9 CALM 0 4 0 2 1018.8 - 0.0
31/07:30pm 24.6 22.1 6.4 31 9.4 SE 9 9 5 5 1018.8 - 0.0
31/07:00pm 25.7 23.1 6.3 29 10.1 S 9 13 5 7 1019.0 - 0.0
31/06:30pm 26.7 22.9 5.6 26 10.9 S 15 20 8 11 1018.9 - 0.0
31/06:00pm 27.4 22.6 5.6 25 11.3 SSW 20 26 11 14 1018.7 1018.6 0.0
31/05:30pm 29.0 24.6 6.4 24 12.0 SW 19 26 10 14 1018.3 - 0.0
31/05:00pm 31.2 28.3 4.9 19 13.8 SW 9 15 5 8 1018.2 - 0.0
31/04:30pm 31.7 28.5 1.0 14 15.1 WNW 7 11 4 6 1018.4 - 0.0
31/04:00pm 31.4 27.8 0.7 14 15.0 NE 9 17 5 9 1018.8 - 0.0
31/03:30pm 31.5 29.0 1.8 15 14.8 S 4 9 2 5 1019.0 - 0.0
31/03:00pm 31.0 27.1 1.4 15 14.6 ENE 11 19 6 10 1019.4 1019.3 0.0
31/02:30pm 30.8 27.6 2.9 17 14.1 NNE 9 19 5 10 1019.9 - 0.0
31/02:00pm 30.1 26.4 2.4 17 13.8 N 11 17 6 9 1020.4 - 0.0
31/01:30pm 29.6 26.0 2.8 18 13.4 N 11 19 6 10 1021.1 - 0.0
31/01:00pm 29.1 24.2 3.9 20 12.8 NE 19 26 10 14 1021.6 - 0.0
31/12:30pm 29.0 24.3 5.1 22 12.4 ENE 19 28 10 15 1022.1 - 0.0
31/12:00pm 27.8 23.4 4.8 23 11.8 NNE 17 26 9 14 1022.6 1022.5 0.0
31/11:30am 27.3 22.0 5.0 24 11.4 NE 22 30 12 16 1022.8 - 0.0
31/11:00am 26.8 20.2 6.2 27 10.7 ENE 30 35 16 19 1023.0 - 0.0
31/10:30am 25.7 19.3 6.8 30 9.9 NE 30 39 16 21 1023.3 - 0.0
31/10:00am 23.4 16.8 7.9 37 8.1 NE 32 39 17 21 1023.6 - 0.0
31/09:30am 21.7 15.3 8.6 43 6.9 NE 32 39 17 21 1023.7 - 0.0
31/09:00am 20.2 14.3 9.2 49 5.8 ENE 30 39 16 21 1023.6 1023.5 0.0
31/08:30am 18.8 13.0 9.6 55 4.9 ENE 30 37 16 20 1023.6 - 0.0
31/08:00am 17.4 12.0 9.6 60 4.1 ENE 28 35 15 19 1023.4 - 0.0
31/07:30am 15.5 11.3 9.6 68 3.1 ENE 22 28 12 15 1023.4 - 0.0
31/07:00am 14.8 11.5 9.4 70 2.8 ENE 17 20 9 11 1023.4 - 0.0
31/06:30am 14.7 12.0 9.1 69 2.9 ENE 13 19 7 10 1023.3 - 0.0
31/06:00am 15.9 11.6 9.3 65 3.4 E 22 28 12 15 1022.7 1022.6 0.0
31/05:30am 15.9 12.2 9.3 65 3.4 E 19 22 10 12 1022.9 - 0.0
31/05:00am 15.9 12.5 9.1 64 3.5 E 17 20 9 11 1022.7 - 0.0
31/04:30am 16.0 12.6 9.0 63 3.6 ENE 17 20 9 11 1022.7 - 0.0
31/04:00am 15.4 12.8 9.3 67 3.1 E 13 17 7 9 1022.9 - 0.0
31/03:30am 14.9 12.6 9.1 68 3.0 E 11 13 6 7 1023.1 - 0.0
31/03:00am 15.2 12.5 9.1 67 3.1 E 13 15 7 8 1023.2 1023.1 0.0
31/02:30am 15.8 12.0 9.0 64 3.5 ENE 19 20 10 11 1023.3 - 0.0
31/02:00am 15.7 12.6 8.7 63 3.6 ENE 15 17 8 9 1023.4 - 0.0
31/01:30am 15.3 12.1 8.5 64 3.5 ENE 15 15 8 8 1023.6 - 0.0
31/01:00am 15.6 12.8 8.4 62 3.7 E 13 15 7 8 1023.5 - 0.0
31/12:30am 15.3 12.8 8.1 62 3.6 E 11 13 6 7 1023.7 - 0.0
31/12:00am 14.8 11.8 7.8 63 3.5 E 13 13 7 7 1024.0 1023.8 0.0
 
Date/Time
CDT
Temp
°C
App
Temp
°C
Dew
Point
Rel
Hum
%
Delta-T
°C
Wind Press
QNH
hPa
Press
MSL
hPa
Rain
since 9 am
mm
Dir
 
Spd
km/h
Gust
km/h
Spd
kts
Gust
kts
30/11:30pm 13.1 10.1 6.0 62 3.4 E 11 13 6 7 1024.4 - 0.0
30/11:00pm 14.1 11.2 6.5 60 3.7 ENE 11 13 6 7 1024.4 - 0.0
30/10:30pm 14.3 11.4 6.4 59 3.8 E 11 13 6 7 1024.5 - 0.0
30/10:00pm 14.5 11.8 5.6 55 4.2 ESE 9 11 5 6 1024.4 - 0.0
30/09:30pm 15.2 12.5 7.2 59 4.0 E 11 13 6 7 1024.2 - 0.0
30/09:00pm 15.6 14.3 6.1 53 4.6 ESE 2 9 1 5 1024.2 1024.0 0.0
30/08:30pm 18.9 17.4 9.1 53 5.2 S 7 9 4 5 1023.9 - 0.0
30/08:00pm 20.0 18.2 9.3 50 5.7 S 9 15 5 8 1023.4 - 0.0
30/07:30pm 21.1 18.3 8.4 44 6.7 SSW 13 17 7 9 1023.1 - 0.0
30/07:00pm 22.8 19.9 9.6 43 7.2 SSW 15 20 8 11 1022.9 - 0.0
30/06:30pm 23.8 19.7 7.8 36 8.5 SSW 19 24 10 13 1022.8 - 0.0
30/06:00pm 24.5 20.0 8.5 36 8.6 SSW 22 28 12 15 1022.6 1022.5 0.0
30/05:30pm 25.3 20.8 7.0 31 9.6 SSW 20 28 11 15 1022.4 - 0.0
30/05:00pm 26.2 21.6 6.3 28 10.4 SSW 20 26 11 14 1022.3 - 0.0
30/04:30pm 26.6 22.1 7.1 29 10.3 SSW 20 26 11 14 1022.1 - 0.0
30/04:00pm 27.3 23.8 8.7 31 10.2 S 17 26 9 14 1022.1 - 0.0
30/03:30pm 27.0 22.7 6.9 28 10.6 W 19 22 10 12 1022.2 - 0.0
30/03:00pm 27.3 25.3 7.2 28 10.7 SSE 7 11 4 6 1022.5 1022.4 0.0
30/02:30pm 26.7 24.3 7.2 29 10.4 WSW 9 17 5 9 1022.8 - 0.0
30/02:00pm 26.7 25.1 8.2 31 10.0 ENE 6 11 3 6 1023.1 - 0.0
30/01:30pm 25.7 22.7 7.8 32 9.6 SSE 13 17 7 9 1023.4 - 0.0
30/01:00pm 25.5 23.9 8.1 33 9.3 ESE 6 11 3 6 1023.9 - 0.0
30/12:30pm 25.1 23.3 8.1 34 9.1 E 7 13 4 7 1024.3 - 0.0
30/12:00pm 24.5 22.0 8.0 35 8.7 ENE 11 20 6 11 1024.6 1024.4 0.0
30/11:30am 23.9 22.0 9.1 39 8.0 NE 9 15 5 8 1024.9 - 0.0
30/11:00am 22.8 20.5 8.9 41 7.4 NE 11 17 6 9 1025.1 - 0.0
30/10:30am 22.5 20.4 9.6 44 7.0 NE 11 15 6 8 1025.3 - 0.0
30/10:00am 21.5 19.1 10.0 48 6.2 NE 13 17 7 9 1025.2 - 0.0
30/09:30am 20.4 17.4 10.5 53 5.4 ENE 17 20 9 11 1025.1 - 0.0
30/09:00am 18.2 15.0 10.1 59 4.3 ENE 17 22 9 12 1024.9 1024.7 0.0
30/08:30am 16.0 12.2 9.0 63 3.6 NE 19 24 10 13 1024.5 - 0.0
30/08:00am 14.0 10.5 8.6 70 2.7 NE 17 22 9 12 1024.3 - 0.0
30/07:30am 12.4 9.8 7.9 74 2.2 NE 11 15 6 8 1023.9 - 0.0
30/07:00am 12.5 9.5 7.8 73 2.3 ENE 13 15 7 8 1023.5 - 0.0
30/06:30am 12.3 10.0 7.4 72 2.4 E 9 11 5 6 1023.2 - 0.0
30/06:00am 11.8 8.6 6.9 72 2.3 NE 13 17 7 9 1022.8 1022.7 0.0
30/05:30am 10.5 7.2 6.5 76 1.9 NE 13 15 7 8 1022.6 - 0.0
30/05:00am 9.8 6.8 6.0 77 1.8 ENE 11 13 6 7 1022.6 - 0.0
30/04:30am 9.9 7.3 6.1 77 1.8 ENE 9 11 5 6 1022.5 - 0.0
30/04:00am 10.2 6.9 6.4 77 1.8 NE 13 13 7 7 1022.5 - 0.0
30/03:30am 10.1 6.8 6.4 78 1.7 NE 13 15 7 8 1022.6 - 0.0
30/03:00am 9.7 7.3 5.3 74 2.0 ENE 7 9 4 5 1022.8 1022.7 0.0
30/02:30am 10.3 8.2 5.7 73 2.1 NNE 6 7 3 4 1023.1 - 0.0
30/02:00am 10.1 8.2 4.9 70 2.3 NNW 4 6 2 3 1023.2 - 0.0
30/01:30am 11.5 9.8 7.6 77 1.9 NNW 6 9 3 5 1023.3 - 0.0
30/01:00am 11.7 10.9 6.6 71 2.4 CALM 0 0 0 0 1023.3 - 0.0
30/12:30am 11.8 10.8 5.4 65 3.0 CALM 0 0 0 0 1023.4 - 0.0
30/12:00am 13.3 12.8 7.7 69 2.7 CALM 0 0 0 0 1023.4 1023.3 0.0
 
Date/Time
CDT
Temp
°C
App
Temp
°C
Dew
Point
Rel
Hum
%
Delta-T
°C
Wind Press
QNH
hPa
Press
MSL
hPa
Rain
since 9 am
mm
Dir
 
Spd
km/h
Gust
km/h
Spd
kts
Gust
kts
29/11:30pm 14.7 12.9 7.0 60 3.8 SW 6 7 3 4 1023.3 - 0.0
29/11:00pm 15.3 13.1 6.1 54 4.4 W 7 9 4 5 1023.3 - 0.0
29/10:30pm 16.0 15.2 6.4 53 4.7 CALM 0 0 0 0 1023.3 - 0.0
29/10:00pm 18.8 17.7 5.3 41 6.6 CALM 0 0 0 0 1023.2 - 0.0
29/09:30pm 20.2 19.7 7.9 45 6.4 CALM 0 0 0 0 1023.0 - 0.0
29/09:00pm 20.5 18.8 7.5 43 6.7 S 6 7 3 4 1022.8 1022.7 0.0
29/08:30pm 21.2 19.4 7.8 42 7.0 S 7 9 4 5 1022.5 - 0.0
29/08:00pm 21.5 19.3 7.7 41 7.2 S 9 13 5 7 1022.2 - 0.0
29/07:30pm 21.7 19.0 7.2 39 7.5 SSW 11 13 6 7 1021.8 - 0.0
29/07:00pm 22.1 19.0 7.1 38 7.7 SSW 13 19 7 10 1021.7 - 0.0
29/06:30pm 22.3 18.7 6.9 37 7.9 SSW 15 20 8 11 1021.4 - 0.0
29/06:00pm 22.6 18.7 7.2 37 8.0 SW 17 24 9 13 1021.2 1021.1 0.0
29/05:30pm 23.4 19.2 7.5 36 8.3 WSW 19 26 10 14 1020.9 - 0.0
29/05:00pm 24.2 19.4 7.4 34 8.8 W 22 30 12 16 1020.8 - 0.0
29/04:30pm 24.3 19.0 6.6 32 9.2 WSW 24 32 13 17 1020.6 - 0.0
29/04:00pm 25.1 21.7 5.8 29 9.9 WSW 13 30 7 16 1020.6 - 0.0
29/03:30pm 25.7 21.1 5.8 28 10.3 WNW 19 32 10 17 1020.7 - 0.0
29/03:00pm 26.2 22.5 4.6 25 10.9 WSW 13 20 7 11 1021.0 1020.9 0.0
29/02:30pm 25.8 21.8 4.9 26 10.6 W 15 24 8 13 1021.1 - 0.0
29/02:00pm 24.6 21.3 4.4 27 10.1 WNW 11 26 6 14 1021.4 - 0.0
29/01:30pm 24.6 21.5 3.8 26 10.3 NW 9 20 5 11 1021.7 - 0.0
29/01:00pm 24.8 21.7 3.5 25 10.5 NW 9 15 5 8 1021.9 - 0.0
29/12:30pm 24.0 20.2 3.9 27 9.9 SW 13 20 7 11 1022.3 - 0.0
29/12:00pm 23.3 20.5 3.3 27 9.7 N 7 13 4 7 1022.6 1022.5 0.0
29/11:30am 23.5 20.7 3.4 27 9.8 WNW 7 13 4 7 1022.7 - 0.0
29/11:00am 22.7 19.9 3.3 28 9.4 WNW 7 11 4 6 1022.8 - 0.0
29/10:30am 21.7 19.1 3.4 30 8.8 NNE 6 11 3 6 1022.8 - 0.0
29/10:00am 21.0 18.3 3.7 32 8.3 NE 7 11 4 6 1023.0 - 0.0
29/09:30am 18.2 14.9 4.7 41 6.5 NE 11 15 6 8 1023.0 - 0.0
29/09:00am 16.1 13.6 4.8 47 5.3 E 7 11 4 6 1022.6 1022.5 0.0
29/08:30am 14.3 11.8 4.9 53 4.4 E 7 9 4 5 1022.4 - 0.0
29/08:00am 13.6 11.1 4.7 55 4.1 E 7 9 4 5 1022.1 - 0.0
29/07:30am 13.1 9.4 4.3 55 4.0 NE 13 15 7 8 1021.9 - 0.0
29/07:00am 13.0 10.4 4.4 56 3.9 NE 7 9 4 5 1021.6 - 0.0
29/06:30am 13.2 10.9 4.9 57 3.8 E 6 7 3 4 1021.2 - 0.0
29/06:00am 13.1 10.8 4.8 57 3.8 ENE 6 9 3 5 1020.8 1020.7 0.0
29/05:30am 11.6 8.2 4.1 60 3.4 ENE 11 13 6 7 1020.5 - 0.0
29/05:00am 12.5 8.3 4.0 56 3.8 NE 15 17 8 9 1020.3 - 0.0
29/04:30am 13.5 9.4 4.4 54 4.2 NE 15 17 8 9 1020.3 - 0.0
29/04:00am 14.0 9.9 4.3 52 4.5 NE 15 17 8 9 1020.3 - 0.0
29/03:30am 14.5 10.4 4.5 51 4.6 NE 15 17 8 9 1020.3 - 0.0
29/03:00am 13.9 10.3 4.8 54 4.2 NE 13 15 7 8 1020.6 1020.5 0.0
29/02:30am 13.4 9.4 4.8 56 4.0 NE 15 15 8 8 1020.9 - 0.0
29/02:00am 12.6 8.9 4.6 58 3.7 NE 13 15 7 8 1021.2 - 0.0
29/01:30am 13.1 9.4 4.5 56 3.9 NNE 13 15 7 8 1021.4 - 0.0
29/01:00am 13.6 9.9 4.5 54 4.2 NNE 13 15 7 8 1021.3 - 0.0
29/12:30am 13.4 9.6 4.0 53 4.3 NE 13 15 7 8 1021.3 - 0.0
29/12:00am 14.4 11.0 4.1 50 4.7 NE 11 13 6 7 1021.2 1021.1 0.0
 
Date/Time
CDT
Temp
°C
App
Temp
°C
Dew
Point
Rel
Hum
%
Delta-T
°C
Wind Press
QNH
hPa
Press
MSL
hPa
Rain
since 9 am
mm
Dir
 
Spd
km/h
Gust
km/h
Spd
kts
Gust
kts
28/11:30pm 13.6 10.1 3.7 51 4.5 NE 11 13 6 7 1021.4 - 0.0
28/11:00pm 14.5 11.0 3.3 47 5.1 NE 11 13 6 7 1021.6 - 0.0
28/10:30pm 14.1 10.9 3.3 48 4.9 NNE 9 11 5 6 1021.9 - 0.0
28/10:00pm 14.2 11.5 2.8 46 5.1 NNE 6 9 3 5 1021.8 - 0.0
28/09:30pm 14.3 12.7 2.5 45 5.2 CALM 0 7 0 4 1021.9 - 0.0
28/09:00pm 14.2 12.5 2.1 44 5.3 CALM 0 0 0 0 1021.5 1021.4 0.0
28/08:30pm 16.5 13.7 1.8 37 6.6 SSW 6 9 3 5 1021.4 - 0.0

Other Formats:

Comma delimited format used in spreadsheet applications
http://www.bom.gov.au/fwo/IDS60801/IDS60801.95671.axf

JavaScript Object Notation format (JSON) in row-major order
http://www.bom.gov.au/fwo/IDS60801/IDS60801.95671.json